Time;durP1;ratioP1;P1;durP2;ratioP2;P2;SDS_P1;SDS_P2;PMS_P1;PMS_P2;Temp;Humidity;BMP_temperature;BMP_pressure;BME280_temperature;BME280_humidity;BME280_pressure;Samples;Min_cycle;Max_cycle;Signal;HPM_P1;HPM_P2
2022/01/23 00:00:43;;;;;;;0.40;0.20;;;0.90;99.90;;;;;;4977867;28;20415;-71
2022/01/23 00:03:16;;;;;;;0.40;0.20;;;0.80;99.90;;;;;;4977241;28;20945;-70
2022/01/23 00:05:46;;;;;;;0.40;0.30;;;0.90;99.90;;;;;;4992830;28;20418;-70
2022/01/23 00:08:15;;;;;;;0.40;0.30;;;0.80;99.90;;;;;;4993877;28;20425;-70
2022/01/23 00:10:41;;;;;;;0.40;0.20;;;0.80;99.90;;;;;;4993064;28;20445;-70
2022/01/23 00:18:55;;;;;;;0.50;0.50;;;0.90;99.90;;;;;;4993603;28;20411;-70
2022/01/23 00:21:21;;;;;;;0.40;0.20;;;1.00;99.90;;;;;;4993469;28;20787;-71
2022/01/23 00:31:41;;;;;;;0.50;0.50;;;1.00;99.90;;;;;;4992685;28;20448;-71
2022/01/23 00:34:07;;;;;;;0.40;0.20;;;1.00;99.90;;;;;;4975982;28;20409;-70
2022/01/23 00:36:35;;;;;;;0.40;0.20;;;1.20;99.90;;;;;;4992648;28;20386;-73
2022/01/23 00:39:00;;;;;;;0.40;0.20;;;1.10;99.90;;;;;;4976203;28;20391;-71
2022/01/23 00:41:26;;;;;;;0.57;0.50;;;1.10;99.90;;;;;;4992917;28;20485;-71
2022/01/23 00:43:53;;;;;;;0.40;0.20;;;1.30;99.90;;;;;;4975215;28;20395;-70
2022/01/23 00:51:26;;;;;;;0.80;0.60;;;1.30;99.90;;;;;;4993356;28;20431;-70
2022/01/23 00:53:52;;;;;;;0.50;0.50;;;1.40;99.90;;;;;;4992311;28;20731;-70
2022/01/23 00:56:18;;;;;;;0.40;0.30;;;1.40;99.90;;;;;;4992457;28;20425;-70
2022/01/23 00:58:44;;;;;;;0.75;0.55;;;1.30;99.90;;;;;;5000730;28;20393;-72
2022/01/23 01:01:11;;;;;;;0.40;0.20;;;1.40;99.90;;;;;;5011947;28;20516;-70
2022/01/23 01:03:37;;;;;;;1.20;0.50;;;1.40;99.90;;;;;;5012204;28;20401;-70
2022/01/23 01:06:03;;;;;;;0.40;0.20;;;1.40;99.90;;;;;;5011375;28;20385;-70
2022/01/23 01:08:28;;;;;;;0.40;0.20;;;1.40;99.90;;;;;;4994668;28;20789;-70
2022/01/23 01:11:36;;;;;;;0.60;0.60;;;1.30;99.90;;;;;;4993924;28;20480;-71
2022/01/23 01:14:19;;;;;;;0.40;0.20;;;1.40;99.90;;;;;;5011008;28;20571;-71
2022/01/23 01:30:42;;;;;;;0.40;0.40;;;1.40;99.90;;;;;;4982773;28;20434;-70
2022/01/23 01:33:27;;;;;;;0.40;0.20;;;1.40;99.90;;;;;;5011096;28;20432;-70
2022/01/23 01:35:58;;;;;;;0.40;0.20;;;1.40;99.90;;;;;;5012198;28;20443;-70
2022/01/23 01:38:24;;;;;;;0.60;0.60;;;1.50;99.90;;;;;;5011161;28;20377;-70
2022/01/23 01:40:51;;;;;;;1.20;0.50;;;1.60;99.90;;;;;;5011544;28;20423;-71
2022/01/23 01:43:17;;;;;;;0.40;0.20;;;1.50;99.90;;;;;;5011275;28;20769;-70
2022/01/23 01:45:44;;;;;;;0.40;0.40;;;1.50;99.90;;;;;;5011386;28;20443;-70
2022/01/23 01:48:11;;;;;;;0.40;0.20;;;1.60;99.90;;;;;;5010622;28;20393;-72
2022/01/23 01:50:43;;;;;;;0.40;0.20;;;1.60;99.90;;;;;;5011326;28;20392;-70
2022/01/23 01:53:11;;;;;;;0.40;0.20;;;1.70;99.90;;;;;;5011450;28;20392;-70
2022/01/23 01:55:42;;;;;;;0.40;0.20;;;1.70;99.90;;;;;;5010357;28;20478;-70
2022/01/23 01:58:32;;;;;;;0.90;0.90;;;1.60;99.90;;;;;;4989842;28;20486;-70
2022/01/23 02:00:58;;;;;;;0.40;0.20;;;1.60;99.90;;;;;;4991136;28;20421;-70
2022/01/23 02:08:19;;;;;;;0.40;0.20;;;1.70;99.90;;;;;;4990838;28;20884;-70
2022/01/23 02:08:55;;;;;;;0.40;0.20;;;1.70;99.90;;;;;;4991330;28;20818;-70
2022/01/23 02:11:38;;;;;;;0.40;0.20;;;1.80;99.90;;;;;;4991656;28;20393;-70
2022/01/23 02:14:25;;;;;;;0.40;0.20;;;1.70;99.90;;;;;;4991603;28;20390;-70
2022/01/23 02:57:09;;;;;;;0.70;0.70;;;2.10;99.90;;;;;;4990324;28;20440;-69
2022/01/23 02:59:37;;;;;;;0.40;0.20;;;2.00;99.90;;;;;;5007265;28;20389;-69
2022/01/23 03:04:40;;;;;;;0.40;0.20;;;2.00;99.90;;;;;;5014591;28;20399;-69
2022/01/23 03:14:59;;;;;;;0.40;0.20;;;2.20;99.90;;;;;;5014382;28;20430;-69
2022/01/23 03:26:12;;;;;;;0.40;0.40;;;2.00;99.90;;;;;;5014523;28;20464;-70
2022/01/23 03:28:36;;;;;;;0.40;0.40;;;1.90;99.90;;;;;;5012904;28;20426;-70
2022/01/23 03:33:47;;;;;;;0.70;0.50;;;1.80;99.90;;;;;;4999464;28;20533;-70
2022/01/23 03:36:13;;;;;;;0.40;0.20;;;1.80;99.90;;;;;;4980265;28;20877;-70
2022/01/23 03:38:39;;;;;;;0.40;0.20;;;1.80;99.90;;;;;;5013201;28;20383;-70
2022/01/23 03:41:05;;;;;;;0.40;0.20;;;1.70;99.90;;;;;;5013441;28;20507;-70
2022/01/23 03:43:34;;;;;;;0.40;0.20;;;1.70;99.90;;;;;;5013065;28;20382;-70
2022/01/23 03:51:13;;;;;;;0.40;0.20;;;1.70;99.90;;;;;;5013776;28;20446;-70
2022/01/23 03:53:39;;;;;;;0.40;0.20;;;1.70;99.90;;;;;;5013199;28;20404;-69
2022/01/23 03:56:06;;;;;;;0.40;0.20;;;1.70;99.90;;;;;;5013672;28;20485;-70
2022/01/23 03:58:32;;;;;;;0.40;0.20;;;1.70;99.90;;;;;;5005924;28;20882;-72
2022/01/23 04:00:58;;;;;;;0.40;0.20;;;1.70;99.90;;;;;;4993698;28;20413;-70
2022/01/23 04:03:24;;;;;;;0.40;0.38;;;1.70;99.90;;;;;;4993580;28;20418;-70
2022/01/23 04:05:50;;;;;;;0.40;0.20;;;1.70;99.90;;;;;;4993100;28;20521;-70
2022/01/23 04:08:17;;;;;;;0.40;0.30;;;1.70;99.90;;;;;;4993744;28;20391;-70
2022/01/23 04:10:43;;;;;;;0.40;0.20;;;1.80;99.90;;;;;;4992924;28;20879;-70
2022/01/23 04:13:24;;;;;;;0.40;0.40;;;1.90;99.90;;;;;;4975773;28;20401;-71
2022/01/23 04:16:09;;;;;;;0.40;0.20;;;1.90;99.90;;;;;;4993202;28;20383;-70
2022/01/23 04:45:48;;;;;;;0.40;0.20;;;1.60;99.90;;;;;;4993255;28;20432;-70
2022/01/23 04:59:35;;;;;;;0.40;0.20;;;1.30;99.90;;;;;;5006976;28;20547;-70
2022/01/23 05:04:46;;;;;;;0.40;0.20;;;1.10;99.90;;;;;;4997572;28;20439;-70
2022/01/23 05:07:14;;;;;;;0.40;0.20;;;1.00;99.90;;;;;;5012538;28;20405;-70
2022/01/23 05:09:40;;;;;;;0.40;0.20;;;0.90;99.90;;;;;;5011919;28;20411;-70
2022/01/23 05:12:08;;;;;;;0.40;0.20;;;0.90;99.90;;;;;;5012275;28;20393;-70
2022/01/23 05:14:40;;;;;;;0.40;0.20;;;0.90;99.90;;;;;;5011439;28;20412;-70
2022/01/23 05:17:09;;;;;;;0.40;0.20;;;0.90;99.90;;;;;;5012298;28;20475;-70
2022/01/23 05:19:36;;;;;;;0.40;0.20;;;0.90;99.90;;;;;;5011289;28;20404;-70
2022/01/23 05:22:29;;;;;;;0.40;0.20;;;1.00;99.90;;;;;;5012043;28;20413;-70
2022/01/23 05:25:00;;;;;;;1.10;0.60;;;1.00;99.90;;;;;;4994432;28;20808;-70
2022/01/23 05:27:27;;;;;;;0.40;0.20;;;1.00;99.90;;;;;;5012085;28;20404;-72
2022/01/23 05:29:55;;;;;;;0.40;0.20;;;1.00;99.90;;;;;;5011469;28;20385;-70
2022/01/23 05:32:23;;;;;;;0.40;0.20;;;1.10;99.90;;;;;;5011927;28;20389;-70
2022/01/23 05:34:49;;;;;;;0.40;0.20;;;1.10;99.90;;;;;;5011137;28;20471;-70
2022/01/23 05:37:16;;;;;;;0.40;0.20;;;1.10;99.90;;;;;;5011730;28;20408;-70
2022/01/23 05:39:42;;;;;;;0.40;0.30;;;1.20;99.90;;;;;;5011033;28;20421;-70
2022/01/23 05:42:09;;;;;;;0.40;0.20;;;1.40;99.90;;;;;;4994518;28;20444;-70
2022/01/23 05:44:40;;;;;;;0.40;0.20;;;1.20;99.90;;;;;;5011843;28;20393;-70
2022/01/23 05:47:07;;;;;;;0.40;0.20;;;1.30;99.90;;;;;;5010985;28;20446;-70
2022/01/23 05:49:33;;;;;;;0.40;0.20;;;1.40;99.90;;;;;;5011568;28;20432;-69
2022/01/23 05:51:59;;;;;;;0.40;0.30;;;1.40;99.90;;;;;;5010783;28;20385;-70
2022/01/23 05:54:26;;;;;;;0.40;0.20;;;1.50;99.90;;;;;;4976960;28;20989;-70
2022/01/23 05:56:51;;;;;;;0.60;0.60;;;1.50;99.90;;;;;;5010791;28;20393;-71
2022/01/23 05:59:17;;;;;;;0.40;0.30;;;1.40;99.90;;;;;;4997903;28;20883;-70
2022/01/23 06:01:46;;;;;;;0.40;0.20;;;1.40;99.90;;;;;;4991765;28;20418;-70
2022/01/23 06:04:12;;;;;;;0.40;0.20;;;1.40;99.90;;;;;;4990854;28;20398;-70
2022/01/23 06:06:37;;;;;;;0.40;0.30;;;1.50;99.90;;;;;;4974305;28;20466;-70
2022/01/23 06:09:03;;;;;;;0.40;0.20;;;1.50;99.90;;;;;;4990968;28;20763;-70
2022/01/23 06:11:29;;;;;;;0.40;0.20;;;1.50;99.90;;;;;;4974451;28;20398;-70
2022/01/23 06:13:55;;;;;;;0.40;0.20;;;1.50;99.90;;;;;;4974247;28;20395;-70
2022/01/23 06:16:20;;;;;;;0.40;0.20;;;1.50;99.90;;;;;;4990813;28;20874;-70
2022/01/23 06:18:46;;;;;;;0.40;0.20;;;1.50;99.90;;;;;;4973857;28;20400;-70
2022/01/23 06:21:18;;;;;;;0.40;0.20;;;1.60;99.90;;;;;;4990742;28;20857;-70
2022/01/23 06:23:43;;;;;;;0.60;0.60;;;1.50;99.90;;;;;;4974942;28;20949;-70
2022/01/23 06:26:09;;;;;;;0.40;0.20;;;1.50;99.90;;;;;;4973263;28;20402;-70
2022/01/23 06:28:52;;;;;;;0.40;0.20;;;1.40;99.90;;;;;;4991720;28;20862;-70
2022/01/23 06:31:18;;;;;;;0.50;0.50;;;1.40;99.90;;;;;;4973825;28;20401;-70
2022/01/23 06:33:44;;;;;;;0.40;0.35;;;1.40;99.90;;;;;;4974216;28;20887;-70
2022/01/23 06:36:09;;;;;;;0.40;0.20;;;1.40;99.90;;;;;;4991074;28;20486;-70
2022/01/23 06:38:38;;;;;;;0.40;0.40;;;1.40;99.90;;;;;;4990721;28;20414;-70
2022/01/23 06:41:04;;;;;;;0.40;0.20;;;1.40;99.90;;;;;;4991180;28;20432;-70
2022/01/23 06:43:30;;;;;;;0.40;0.20;;;1.40;99.90;;;;;;4990696;28;20383;-70
2022/01/23 06:45:56;;;;;;;0.40;0.20;;;1.40;99.90;;;;;;4991378;28;20878;-70
2022/01/23 06:48:21;;;;;;;0.40;0.20;;;1.40;99.90;;;;;;4990874;28;20382;-72
2022/01/23 06:50:47;;;;;;;0.40;0.20;;;1.50;99.90;;;;;;4973538;28;20435;-70
2022/01/23 06:53:13;;;;;;;0.40;0.20;;;1.50;99.90;;;;;;4990769;28;20880;-70
2022/01/23 06:55:39;;;;;;;0.40;0.20;;;1.50;99.90;;;;;;4990159;28;20457;-70
2022/01/23 06:58:04;;;;;;;0.40;0.20;;;1.40;99.90;;;;;;4977152;28;20397;-70
2022/01/23 07:00:32;;;;;;;0.40;0.20;;;1.40;99.90;;;;;;5009648;28;20385;-72
2022/01/23 07:02:59;;;;;;;0.50;0.50;;;1.50;99.90;;;;;;5010779;28;20733;-70
2022/01/23 07:05:25;;;;;;;0.40;0.30;;;1.40;99.90;;;;;;5010756;28;20383;-70
2022/01/23 07:07:52;;;;;;;0.40;0.20;;;1.30;99.90;;;;;;5010010;28;20874;-70
2022/01/23 07:10:19;;;;;;;0.40;0.20;;;1.50;99.90;;;;;;4993088;28;20447;-70
2022/01/23 07:12:44;;;;;;;0.40;0.20;;;1.60;99.90;;;;;;4992554;28;20480;-70
2022/01/23 07:15:10;;;;;;;0.40;0.20;;;1.50;99.90;;;;;;5010800;28;20420;-69
2022/01/23 07:17:43;;;;;;;0.70;0.70;;;1.50;99.90;;;;;;4992923;28;20392;-70
2022/01/23 07:20:09;;;;;;;0.40;0.20;;;1.50;99.90;;;;;;5010279;28;20418;-69
2022/01/23 07:22:35;;;;;;;0.40;0.20;;;1.50;99.90;;;;;;5010285;28;20912;-69
2022/01/23 07:25:03;;;;;;;0.40;0.20;;;1.50;99.90;;;;;;5009827;28;20454;-69
2022/01/23 07:27:54;;;;;;;0.40;0.20;;;1.40;99.90;;;;;;5010452;28;20400;-70
2022/01/23 07:32:53;;;;;;;0.40;0.20;;;1.50;99.90;;;;;;5009760;28;20417;-70
2022/01/23 07:35:19;;;;;;;0.50;0.50;;;1.50;99.90;;;;;;5010302;28;20415;-69
2022/01/23 07:37:45;;;;;;;0.40;0.20;;;1.50;99.90;;;;;;5009869;28;20401;-69
2022/01/23 07:40:11;;;;;;;0.40;0.20;;;1.50;99.90;;;;;;5010000;28;20763;-70
2022/01/23 07:42:39;;;;;;;0.40;0.20;;;1.50;99.90;;;;;;5009848;28;20834;-70
2022/01/23 07:45:06;;;;;;;0.40;0.20;;;1.40;99.90;;;;;;5003463;28;20398;-70
2022/01/23 07:47:32;;;;;;;0.40;0.28;;;1.50;99.90;;;;;;4992294;28;20383;-70
2022/01/23 07:50:00;;;;;;;0.40;0.20;;;1.40;99.90;;;;;;4993279;28;20395;-72
2022/01/23 07:52:29;;;;;;;0.40;0.20;;;1.40;99.90;;;;;;4993661;28;20764;-70
2022/01/23 07:54:55;;;;;;;0.70;0.70;;;1.50;99.90;;;;;;4991742;28;20758;-70
2022/01/23 07:57:21;;;;;;;0.40;0.20;;;1.60;99.90;;;;;;4990931;28;20387;-69
2022/01/23 07:59:46;;;;;;;0.40;0.20;;;1.70;99.90;;;;;;5005381;28;20389;-70
2022/01/23 08:04:47;;;;;;;0.40;0.20;;;1.70;99.90;;;;;;4480447;22;20442;-74
2022/01/23 08:09:58;;;;;;;0.40;0.20;;;1.80;99.90;;;;;;5032901;28;20735;-76
2022/01/23 08:12:28;;;;;;;0.40;0.20;;;1.70;99.90;;;;;;5033249;28;20395;-74
2022/01/23 08:14:55;;;;;;;0.70;0.70;;;1.70;99.90;;;;;;5032494;28;20432;-75
2022/01/23 08:17:24;;;;;;;0.40;0.20;;;1.70;99.90;;;;;;5033117;28;20406;-75
2022/01/23 08:19:52;;;;;;;0.40;0.20;;;1.80;99.90;;;;;;5032409;28;20723;-75
2022/01/23 08:22:18;;;;;;;0.40;0.20;;;1.80;99.90;;;;;;5032943;28;20434;-75
2022/01/23 08:24:43;;;;;;;0.40;0.20;;;1.70;99.90;;;;;;5032277;28;20938;-75
2022/01/23 08:27:09;;;;;;;0.47;0.35;;;1.80;99.90;;;;;;5032967;28;20407;-75
2022/01/23 08:29:35;;;;;;;0.40;0.20;;;1.90;99.90;;;;;;5032937;28;20480;-75
2022/01/23 08:32:00;;;;;;;0.40;0.20;;;1.90;99.90;;;;;;5014272;28;20399;-75
2022/01/23 08:34:26;;;;;;;0.40;0.20;;;1.90;99.90;;;;;;5032924;28;20390;-75
2022/01/23 08:36:55;;;;;;;0.40;0.20;;;1.90;99.90;;;;;;5032075;28;20442;-75
2022/01/23 08:39:24;;;;;;;0.40;0.20;;;2.00;99.90;;;;;;5032490;28;20437;-75
2022/01/23 08:41:50;;;;;;;0.43;0.30;;;2.00;99.90;;;;;;5031651;28;20402;-75
2022/01/23 08:44:26;;;;;;;0.40;0.40;;;1.90;99.90;;;;;;5032740;28;20433;-74
2022/01/23 08:46:52;;;;;;;0.40;0.20;;;2.00;99.90;;;;;;5031891;28;20428;-75
2022/01/23 08:49:20;;;;;;;0.40;0.20;;;2.10;99.90;;;;;;5032366;28;20441;-75
2022/01/23 08:51:47;;;;;;;0.40;0.30;;;2.20;99.90;;;;;;5031622;28;20803;-75
2022/01/23 08:54:14;;;;;;;0.40;0.28;;;2.20;99.90;;;;;;5032523;28;20870;-76
2022/01/23 08:56:40;;;;;;;0.90;0.90;;;2.40;99.90;;;;;;5032170;28;20509;-75
2022/01/23 08:59:06;;;;;;;0.40;0.30;;;2.50;99.90;;;;;;5020035;28;20389;-76
2022/01/23 09:01:33;;;;;;;1.00;0.90;;;2.60;99.90;;;;;;4995006;28;20419;-76
2022/01/23 09:03:59;;;;;;;0.40;0.28;;;2.80;99.90;;;;;;5011581;28;20446;-76
2022/01/23 09:06:25;;;;;;;0.40;0.40;;;2.60;99.90;;;;;;5012165;28;20408;-76
2022/01/23 09:08:52;;;;;;;0.40;0.20;;;2.80;99.90;;;;;;5011621;28;20470;-75
2022/01/23 09:14:10;;;;;;;0.40;0.30;;;3.00;99.90;;;;;;5011305;28;20385;-77
2022/01/23 09:16:42;;;;;;;0.40;0.20;;;3.20;99.90;;;;;;5012139;28;20856;-77
2022/01/23 09:19:09;;;;;;;2.10;0.90;;;3.40;99.90;;;;;;5011673;28;20381;-78
2022/01/23 09:21:36;;;;;;;0.40;0.20;;;3.40;99.90;;;;;;4994668;28;20812;-77
2022/01/23 09:24:02;;;;;;;0.40;0.40;;;3.40;99.90;;;;;;4993724;28;20653;-76
2022/01/23 09:26:28;;;;;;;0.40;0.20;;;3.50;99.90;;;;;;5012230;28;20465;-78
2022/01/23 09:28:57;;;;;;;0.40;0.20;;;3.70;99.90;;;;;;4993511;28;20522;-75
2022/01/23 09:31:28;;;;;;;0.40;0.20;;;3.90;99.90;;;;;;5011675;28;20869;-75
2022/01/23 09:33:54;;;;;;;0.40;0.20;;;3.90;99.90;;;;;;5011167;28;20818;-77
2022/01/23 09:36:20;;;;;;;1.60;0.90;;;4.00;99.90;;;;;;5011866;28;20480;-75
2022/01/23 09:38:46;;;;;;;0.40;0.20;;;4.20;99.90;;;;;;5011395;28;20385;-75
2022/01/23 09:41:16;;;;;;;0.40;0.20;;;4.30;99.90;;;;;;5011655;28;20408;-75
2022/01/23 09:43:43;;;;;;;0.40;0.20;;;4.30;99.90;;;;;;5011885;28;20396;-76
2022/01/23 09:46:08;;;;;;;0.40;0.20;;;4.30;99.90;;;;;;5010978;28;20389;-75
2022/01/23 09:48:36;;;;;;;0.40;0.20;;;4.30;99.90;;;;;;5011540;28;20459;-77
2022/01/23 09:51:03;;;;;;;0.80;0.80;;;4.20;99.90;;;;;;5010736;28;20946;-76
2022/01/23 09:53:29;;;;;;;0.40;0.20;;;4.20;99.90;;;;;;5011415;28;20396;-77
2022/01/23 09:55:59;;;;;;;0.60;0.60;;;4.30;99.90;;;;;;5003121;28;20475;-77
2022/01/23 09:58:25;;;;;;;0.40;0.20;;;4.30;99.90;;;;;;5002977;28;20390;-77
2022/01/23 10:00:51;;;;;;;0.40;0.20;;;4.40;99.90;;;;;;5002226;28;20752;-76
2022/01/23 10:03:19;;;;;;;1.20;1.10;;;4.50;99.90;;;;;;5001803;28;20422;-76
2022/01/23 10:05:52;;;;;;;0.40;0.20;;;4.30;99.90;;;;;;5000750;28;20762;-76
2022/01/23 10:08:18;;;;;;;0.40;0.30;;;4.40;99.90;;;;;;5001875;28;20387;-76
2022/01/23 10:10:50;;;;;;;0.40;0.20;;;4.50;99.90;;;;;;5001901;28;20439;-76
2022/01/23 10:13:17;;;;;;;0.40;0.20;;;4.60;99.90;;;;;;4994146;28;20486;-77
2022/01/23 10:15:43;;;;;;;0.40;0.20;;;4.60;99.90;;;;;;4998786;28;20400;-77
2022/01/23 10:18:08;;;;;;;0.40;0.20;;;4.80;99.90;;;;;;5002017;28;20399;-76
2022/01/23 10:20:34;;;;;;;0.70;0.50;;;4.70;99.90;;;;;;5004806;28;20381;-76
2022/01/23 10:23:00;;;;;;;0.60;0.60;;;4.60;99.90;;;;;;5004121;28;20436;-76
2022/01/23 10:25:28;;;;;;;0.40;0.20;;;4.60;99.90;;;;;;5000803;28;20400;-77
2022/01/23 10:28:07;;;;;;;0.40;0.30;;;4.60;99.90;;;;;;4995782;28;20383;-77
2022/01/23 10:30:39;;;;;;;0.50;0.50;;;4.70;99.90;;;;;;5002646;28;20401;-77
2022/01/23 10:33:11;;;;;;;0.40;0.30;;;4.80;99.90;;;;;;4995632;28;20662;-76
2022/01/23 10:36:04;;;;;;;1.00;1.00;;;5.00;99.90;;;;;;5009683;28;20440;-76
2022/01/23 10:38:33;;;;;;;0.50;0.50;;;5.10;99.90;;;;;;4991828;28;20469;-76
2022/01/23 10:46:43;;;;;;;0.40;0.20;;;4.90;99.90;;;;;;4991473;28;20786;-75
2022/01/23 10:49:09;;;;;;;2.00;1.40;;;5.00;99.90;;;;;;5007040;28;20397;-76
2022/01/23 10:51:36;;;;;;;0.40;0.20;;;5.00;99.90;;;;;;5008178;28;20388;-76
2022/01/23 10:54:21;;;;;;;0.40;0.25;;;5.00;99.90;;;;;;4996388;28;20420;-76
2022/01/23 10:56:49;;;;;;;0.40;0.30;;;5.10;99.90;;;;;;4998815;28;20391;-77
2022/01/23 10:59:15;;;;;;;0.40;0.40;;;5.20;99.90;;;;;;5006833;28;20484;-76
2022/01/23 11:02:00;;;;;;;0.40;0.20;;;5.40;99.90;;;;;;5007240;28;20493;-77
2022/01/23 11:04:25;;;;;;;0.40;0.22;;;5.40;99.90;;;;;;5000367;28;20395;-76
2022/01/23 11:07:01;;;;;;;0.40;0.30;;;5.50;99.90;;;;;;4996591;28;20411;-76
2022/01/23 11:09:36;;;;;;;0.40;0.20;;;5.70;99.90;;;;;;5007110;28;20715;-76
2022/01/23 11:17:56;;;;;;;0.40;0.20;;;5.80;99.90;;;;;;4999243;28;20437;-74
2022/01/23 11:20:49;;;;;;;0.40;0.40;;;6.00;99.90;;;;;;5010568;28;20503;-76
2022/01/23 11:23:30;;;;;;;0.40;0.30;;;6.20;99.90;;;;;;5010016;28;20499;-76
2022/01/23 11:25:56;;;;;;;1.00;1.00;;;5.90;99.90;;;;;;4998982;28;20891;-76
2022/01/23 11:28:36;;;;;;;0.40;0.20;;;5.90;99.90;;;;;;5009045;28;20392;-73
2022/01/23 11:31:03;;;;;;;0.40;0.30;;;6.30;99.90;;;;;;5008610;28;20403;-76
2022/01/23 11:33:29;;;;;;;0.70;0.70;;;6.30;99.90;;;;;;4997663;28;20414;-76
2022/01/23 11:35:55;;;;;;;1.58;0.75;;;6.10;99.90;;;;;;5007996;28;20874;-76
2022/01/23 11:38:23;;;;;;;0.40;0.20;;;6.40;99.90;;;;;;5003369;28;20448;-76
2022/01/23 11:54:43;;;;;;;0.40;0.20;;;8.10;99.90;;;;;;5003666;28;20420;-76
2022/01/23 11:57:36;;;;;;;0.40;0.20;;;8.90;97.10;;;;;;5004449;28;20404;-77
2022/01/23 12:00:11;;;;;;;0.40;0.30;;;9.30;94.80;;;;;;5008143;28;20880;-77
2022/01/23 12:02:40;;;;;;;0.40;0.20;;;10.00;92.50;;;;;;5010988;28;20435;-77
2022/01/23 12:05:12;;;;;;;1.20;0.90;;;9.60;92.40;;;;;;5011996;28;20761;-76
2022/01/23 12:07:40;;;;;;;0.40;0.30;;;9.50;91.20;;;;;;4997161;28;20385;-76
2022/01/23 12:10:24;;;;;;;0.40;0.20;;;9.00;91.00;;;;;;5005942;28;20382;-77
2022/01/23 12:13:13;;;;;;;0.40;0.30;;;8.90;92.00;;;;;;5006112;28;20397;-76
2022/01/23 12:18:36;;;;;;;0.40;0.30;;;9.10;91.00;;;;;;5003627;28;20880;-77
2022/01/23 12:21:02;;;;;;;0.40;0.40;;;10.60;88.80;;;;;;5001219;28;20421;-77
2022/01/23 12:23:28;;;;;;;0.40;0.20;;;11.10;87.20;;;;;;5006165;28;20445;-77
2022/01/23 12:25:55;;;;;;;0.40;0.30;;;11.30;81.70;;;;;;5004000;28;20381;-75
2022/01/23 12:28:28;;;;;;;0.60;0.60;;;10.60;87.80;;;;;;5001456;28;20395;-76
2022/01/23 12:31:12;;;;;;;0.40;0.20;;;11.30;89.50;;;;;;5003884;28;20393;-76
2022/01/23 12:33:41;;;;;;;3.00;0.80;;;11.50;82.20;;;;;;5004226;28;20483;-76
2022/01/23 12:36:19;;;;;;;0.40;0.20;;;10.70;83.90;;;;;;5002155;28;20399;-76
2022/01/23 12:38:48;;;;;;;0.40;0.30;;;10.80;84.70;;;;;;5001832;28;20389;-75
2022/01/23 12:41:22;;;;;;;0.40;0.30;;;11.10;85.40;;;;;;4998550;28;20752;-76
2022/01/23 12:43:49;;;;;;;0.45;0.35;;;12.00;84.00;;;;;;5001848;28;20399;-77
2022/01/23 12:46:52;;;;;;;0.40;0.30;;;11.20;82.50;;;;;;5005719;28;20718;-76
2022/01/23 12:49:23;;;;;;;0.40;0.30;;;12.00;83.20;;;;;;4991727;28;20405;-75
2022/01/23 12:52:09;;;;;;;0.40;0.30;;;11.20;82.10;;;;;;5002563;28;20542;-76
2022/01/23 12:54:56;;;;;;;0.40;0.30;;;10.80;84.60;;;;;;5002756;28;20400;-77
2022/01/23 12:57:38;;;;;;;0.40;0.30;;;10.40;86.70;;;;;;5004579;28;20405;-76
2022/01/23 13:00:12;;;;;;;0.40;0.20;;;9.80;87.80;;;;;;5002597;28;20385;-76
2022/01/23 13:02:44;;;;;;;0.40;0.30;;;9.90;88.60;;;;;;5003910;28;20413;-76
2022/01/23 13:05:11;;;;;;;0.40;0.30;;;9.90;89.50;;;;;;4986795;28;20404;-76
2022/01/23 13:15:58;;;;;;;0.40;0.30;;;8.20;91.70;;;;;;4999918;28;20426;-76
2022/01/23 13:18:19;;;;;;;0.40;0.40;;;8.20;91.40;;;;;;5002872;28;20381;-77
2022/01/23 13:34:34;;;;;;;0.40;0.30;;;8.30;91.40;;;;;;5003659;28;20477;-77
2022/01/23 13:37:20;;;;;;;0.40;0.20;;;8.40;91.60;;;;;;5002585;28;20419;-76
2022/01/23 13:40:00;;;;;;;1.30;0.60;;;8.20;91.60;;;;;;5004904;28;20774;-77
2022/01/23 13:59:13;;;;;;;0.40;0.20;;;9.00;91.20;;;;;;5001266;28;20444;-77
2022/01/23 14:04:40;;;;;;;0.40;0.20;;;10.40;84.80;;;;;;4967133;28;20433;-76
2022/01/23 14:07:06;;;;;;;0.40;0.20;;;11.30;84.10;;;;;;5002373;28;20423;-77
2022/01/23 14:09:43;;;;;;;0.40;0.30;;;11.50;80.80;;;;;;4999791;28;20470;-77
2022/01/23 14:12:20;;;;;;;0.40;0.20;;;11.90;81.00;;;;;;5002472;28;20726;-76
2022/01/23 14:15:05;;;;;;;0.40;0.20;;;11.70;79.20;;;;;;5002134;28;20650;-76
2022/01/23 14:17:36;;;;;;;0.40;0.30;;;12.00;80.40;;;;;;5001602;28;20932;-76
2022/01/23 14:20:12;;;;;;;0.40;0.20;;;11.90;78.90;;;;;;5001203;28;20385;-76
2022/01/23 14:22:40;;;;;;;0.40;0.20;;;11.80;80.20;;;;;;5000370;28;20422;-76
2022/01/23 14:25:11;;;;;;;0.40;0.30;;;11.50;79.20;;;;;;4999632;28;20389;-75
2022/01/23 14:27:39;;;;;;;0.40;0.20;;;10.40;81.20;;;;;;5000393;28;20736;-75
2022/01/23 14:30:13;;;;;;;0.40;0.30;;;9.80;85.00;;;;;;5002373;28;20865;-75
2022/01/23 14:32:45;;;;;;;1.33;0.47;;;9.30;86.50;;;;;;5002279;28;20780;-75
2022/01/23 14:35:26;;;;;;;0.40;0.30;;;9.00;88.00;;;;;;5000053;28;20418;-76
2022/01/23 14:37:52;;;;;;;0.40;0.20;;;8.30;90.20;;;;;;4997960;28;20410;-76
2022/01/23 14:40:25;;;;;;;0.60;0.50;;;8.20;91.20;;;;;;4997998;28;20977;-76
2022/01/23 14:42:58;;;;;;;0.40;0.30;;;8.00;91.40;;;;;;5003395;28;20968;-75
2022/01/23 14:45:25;;;;;;;1.00;0.90;;;7.90;91.80;;;;;;5001333;28;20925;-75
2022/01/23 14:47:51;;;;;;;0.40;0.30;;;7.90;91.90;;;;;;5003763;28;20383;-75
2022/01/23 14:50:19;;;;;;;0.40;0.20;;;7.60;92.60;;;;;;5002372;28;20440;-76
2022/01/23 14:52:47;;;;;;;0.40;0.20;;;7.50;93.10;;;;;;5003732;28;20428;-75
2022/01/23 14:55:12;;;;;;;0.40;0.20;;;7.20;93.30;;;;;;4984870;28;20801;-75
2022/01/23 14:57:41;;;;;;;0.40;0.30;;;7.10;94.10;;;;;;5008257;28;20459;-75
2022/01/23 15:00:09;;;;;;;0.50;0.50;;;7.00;94.60;;;;;;5003777;28;20385;-76
2022/01/23 15:02:35;;;;;;;0.40;0.20;;;6.90;94.70;;;;;;4986537;28;20417;-76
2022/01/23 15:05:03;;;;;;;0.40;0.20;;;6.70;95.40;;;;;;5001497;28;20437;-75
2022/01/23 15:07:41;;;;;;;0.40;0.20;;;6.90;95.20;;;;;;4980715;28;20415;-74
2022/01/23 15:10:10;;;;;;;1.20;1.10;;;6.80;95.30;;;;;;4986956;28;20402;-75
2022/01/23 15:12:37;;;;;;;0.40;0.20;;;6.70;95.90;;;;;;4989956;28;20772;-75
2022/01/23 15:15:03;;;;;;;0.40;0.25;;;6.50;96.10;;;;;;4989862;28;20465;-75
2022/01/23 15:17:29;;;;;;;0.40;0.20;;;6.40;96.50;;;;;;4989108;28;20382;-75
2022/01/23 15:19:55;;;;;;;0.90;0.70;;;6.40;96.70;;;;;;4989849;28;20889;-76
2022/01/23 15:22:22;;;;;;;0.40;0.20;;;6.30;97.30;;;;;;4992381;28;20410;-76
2022/01/23 15:24:48;;;;;;;0.40;0.20;;;6.20;97.70;;;;;;4990581;28;20393;-75
2022/01/23 15:27:16;;;;;;;0.40;0.20;;;6.30;97.40;;;;;;4988961;28;20395;-75
2022/01/23 15:29:42;;;;;;;0.40;0.20;;;6.10;98.00;;;;;;4990566;28;20486;-75
2022/01/23 15:32:08;;;;;;;0.40;0.20;;;6.00;98.80;;;;;;4984765;28;20427;-75
2022/01/23 15:34:36;;;;;;;0.40;0.20;;;5.80;99.30;;;;;;4985336;28;20398;-76
2022/01/23 15:37:03;;;;;;;0.40;0.20;;;5.80;99.40;;;;;;4985246;28;20415;-76
2022/01/23 15:39:30;;;;;;;0.60;0.60;;;5.80;99.40;;;;;;4984537;28;20500;-76
2022/01/23 15:41:56;;;;;;;0.40;0.20;;;5.60;99.90;;;;;;4981533;28;20819;-76
2022/01/23 15:44:23;;;;;;;0.40;0.20;;;5.60;99.90;;;;;;4983770;28;20391;-75
2022/01/23 15:46:50;;;;;;;0.40;0.20;;;5.60;99.90;;;;;;4983639;28;20485;-75
2022/01/23 15:49:17;;;;;;;0.40;0.20;;;5.40;99.90;;;;;;4984660;28;20452;-75
2022/01/23 15:51:47;;;;;;;0.40;0.20;;;5.40;99.90;;;;;;4984582;28;20752;-76
2022/01/23 15:54:14;;;;;;;0.40;0.20;;;5.20;99.90;;;;;;4984635;28;20378;-75
2022/01/23 15:56:41;;;;;;;0.50;0.50;;;5.20;99.90;;;;;;4985240;28;20374;-75
2022/01/23 15:59:07;;;;;;;0.40;0.40;;;5.10;99.90;;;;;;4985874;28;20764;-71
2022/01/23 16:01:34;;;;;;;0.40;0.20;;;5.00;99.90;;;;;;4985647;28;20416;-76
2022/01/23 16:04:01;;;;;;;2.40;1.20;;;4.90;99.90;;;;;;4988967;28;20482;-75
2022/01/23 16:06:26;;;;;;;0.43;0.22;;;4.90;99.90;;;;;;4984238;28;20888;-76
2022/01/23 16:08:52;;;;;;;0.40;0.20;;;4.80;99.90;;;;;;4982139;28;20390;-76
2022/01/23 16:11:18;;;;;;;0.40;0.20;;;4.70;99.90;;;;;;4984367;28;20473;-76
2022/01/23 16:13:45;;;;;;;0.40;0.25;;;4.80;99.90;;;;;;4985165;28;20395;-75
2022/01/23 16:16:11;;;;;;;0.40;0.30;;;4.70;99.90;;;;;;4986160;28;20400;-74
2022/01/23 16:18:37;;;;;;;0.40;0.20;;;4.70;99.90;;;;;;4986597;28;20390;-75
2022/01/23 16:21:03;;;;;;;0.70;0.50;;;4.60;99.90;;;;;;4984677;28;20517;-74
2022/01/23 16:23:29;;;;;;;0.40;0.20;;;4.50;99.90;;;;;;4982122;28;20473;-74
2022/01/23 16:25:54;;;;;;;1.00;0.80;;;4.50;99.90;;;;;;4982452;28;20419;-75
2022/01/23 16:28:21;;;;;;;0.40;0.20;;;4.50;99.90;;;;;;4984873;28;20386;-74
2022/01/23 16:30:55;;;;;;;0.40;0.30;;;4.50;99.90;;;;;;4984756;28;20383;-74
2022/01/23 16:33:24;;;;;;;0.40;0.20;;;4.30;99.90;;;;;;4983707;28;20394;-74
2022/01/23 16:35:50;;;;;;;0.40;0.30;;;4.30;99.90;;;;;;4983742;28;20408;-74
2022/01/23 16:38:16;;;;;;;0.40;0.20;;;4.20;99.90;;;;;;4984106;28;20387;-74
2022/01/23 16:40:44;;;;;;;0.40;0.20;;;4.10;99.90;;;;;;4984123;28;20379;-74
2022/01/23 16:43:10;;;;;;;0.40;0.20;;;4.10;99.90;;;;;;4984344;28;20894;-74
2022/01/23 16:45:36;;;;;;;0.80;0.70;;;4.00;99.90;;;;;;4979456;28;20386;-74
2022/01/23 16:48:04;;;;;;;0.40;0.20;;;3.90;99.90;;;;;;4984543;28;20395;-74
2022/01/23 16:50:31;;;;;;;0.40;0.20;;;3.90;99.90;;;;;;4985865;28;20474;-75